sensor_id;sensor_type;location;lat;lon;timestamp;temperature;humidity
13754;DHT22;6948;51.216;6.778;2023-05-10T00:00:57;14.40;99.90
13754;DHT22;6948;51.216;6.778;2023-05-10T00:03:23;14.50;99.90
13754;DHT22;6948;51.216;6.778;2023-05-10T00:05:48;14.40;99.90
13754;DHT22;6948;51.216;6.778;2023-05-10T00:08:14;14.40;99.90
13754;DHT22;6948;51.216;6.778;2023-05-10T00:10:40;14.40;99.90
13754;DHT22;6948;51.216;6.778;2023-05-10T00:13:06;14.40;99.90
13754;DHT22;6948;51.216;6.778;2023-05-10T00:15:32;14.30;99.90
13754;DHT22;6948;51.216;6.778;2023-05-10T00:17:57;14.40;99.90
13754;DHT22;6948;51.216;6.778;2023-05-10T00:20:23;14.40;99.90
13754;DHT22;6948;51.216;6.778;2023-05-10T00:22:49;14.40;99.90
13754;DHT22;6948;51.216;6.778;2023-05-10T00:25:15;14.40;99.90
13754;DHT22;6948;51.216;6.778;2023-05-10T00:27:40;14.40;99.90
13754;DHT22;6948;51.216;6.778;2023-05-10T00:30:07;14.50;99.90
13754;DHT22;6948;51.216;6.778;2023-05-10T00:32:32;14.50;99.90
13754;DHT22;6948;51.216;6.778;2023-05-10T00:34:58;14.50;99.90
13754;DHT22;6948;51.216;6.778;2023-05-10T00:37:24;14.40;99.90
13754;DHT22;6948;51.216;6.778;2023-05-10T00:39:49;14.40;99.90
13754;DHT22;6948;51.216;6.778;2023-05-10T00:42:15;14.50;99.90
13754;DHT22;6948;51.216;6.778;2023-05-10T00:44:41;14.50;99.90
13754;DHT22;6948;51.216;6.778;2023-05-10T00:47:07;14.40;99.90
13754;DHT22;6948;51.216;6.778;2023-05-10T00:49:34;14.40;99.90
13754;DHT22;6948;51.216;6.778;2023-05-10T00:52:00;14.40;99.90
13754;DHT22;6948;51.216;6.778;2023-05-10T00:54:27;14.50;99.90
13754;DHT22;6948;51.216;6.778;2023-05-10T00:56:53;14.50;99.90
13754;DHT22;6948;51.216;6.778;2023-05-10T00:59:19;14.40;99.90
13754;DHT22;6948;51.216;6.778;2023-05-10T01:01:45;14.50;99.90
13754;DHT22;6948;51.216;6.778;2023-05-10T01:04:13;14.40;99.90
13754;DHT22;6948;51.216;6.778;2023-05-10T01:06:40;14.30;99.90
13754;DHT22;6948;51.216;6.778;2023-05-10T01:09:06;14.30;99.90
13754;DHT22;6948;51.216;6.778;2023-05-10T01:11:35;14.30;99.90
13754;DHT22;6948;51.216;6.778;2023-05-10T01:14:02;14.30;99.90
13754;DHT22;6948;51.216;6.778;2023-05-10T01:16:31;14.30;99.90
13754;DHT22;6948;51.216;6.778;2023-05-10T01:18:57;14.40;99.90
13754;DHT22;6948;51.216;6.778;2023-05-10T01:24:34;14.30;99.90
13754;DHT22;6948;51.216;6.778;2023-05-10T01:43:42;14.10;99.90
13754;DHT22;6948;51.216;6.778;2023-05-10T01:46:10;14.10;99.90
13754;DHT22;6948;51.216;6.778;2023-05-10T01:48:47;14.10;99.90
13754;DHT22;6948;51.216;6.778;2023-05-10T01:51:19;14.10;99.90
13754;DHT22;6948;51.216;6.778;2023-05-10T01:54:05;14.10;99.90
13754;DHT22;6948;51.216;6.778;2023-05-10T01:56:33;14.10;99.90
13754;DHT22;6948;51.216;6.778;2023-05-10T01:59:00;14.10;99.90
13754;DHT22;6948;51.216;6.778;2023-05-10T02:01:30;14.10;99.90
13754;DHT22;6948;51.216;6.778;2023-05-10T02:03:58;14.10;99.90
13754;DHT22;6948;51.216;6.778;2023-05-10T02:06:25;14.20;99.90
13754;DHT22;6948;51.216;6.778;2023-05-10T02:08:52;14.20;99.90
13754;DHT22;6948;51.216;6.778;2023-05-10T02:11:20;14.10;99.90
13754;DHT22;6948;51.216;6.778;2023-05-10T02:13:48;14.10;99.90
13754;DHT22;6948;51.216;6.778;2023-05-10T02:16:16;14.20;99.90
13754;DHT22;6948;51.216;6.778;2023-05-10T02:18:42;14.30;99.90
13754;DHT22;6948;51.216;6.778;2023-05-10T02:21:09;14.30;99.90
13754;DHT22;6948;51.216;6.778;2023-05-10T02:23:37;14.30;99.90
13754;DHT22;6948;51.216;6.778;2023-05-10T02:26:04;14.40;99.90
13754;DHT22;6948;51.216;6.778;2023-05-10T02:28:32;14.40;99.90
13754;DHT22;6948;51.216;6.778;2023-05-10T02:30:58;14.40;99.90
13754;DHT22;6948;51.216;6.778;2023-05-10T02:33:24;14.40;99.90
13754;DHT22;6948;51.216;6.778;2023-05-10T02:35:51;14.40;99.90
13754;DHT22;6948;51.216;6.778;2023-05-10T02:38:19;14.40;99.90
13754;DHT22;6948;51.216;6.778;2023-05-10T02:40:46;14.30;99.90
13754;DHT22;6948;51.216;6.778;2023-05-10T02:43:14;14.40;99.90
13754;DHT22;6948;51.216;6.778;2023-05-10T02:45:43;14.40;99.90
13754;DHT22;6948;51.216;6.778;2023-05-10T02:48:11;14.40;99.90
13754;DHT22;6948;51.216;6.778;2023-05-10T02:50:39;14.40;99.90
13754;DHT22;6948;51.216;6.778;2023-05-10T02:53:11;14.40;99.90
13754;DHT22;6948;51.216;6.778;2023-05-10T02:55:41;14.30;99.90
13754;DHT22;6948;51.216;6.778;2023-05-10T02:58:08;14.30;99.90
13754;DHT22;6948;51.216;6.778;2023-05-10T03:00:34;14.30;99.90
13754;DHT22;6948;51.216;6.778;2023-05-10T03:03:00;14.30;99.90
13754;DHT22;6948;51.216;6.778;2023-05-10T03:05:26;14.30;99.90
13754;DHT22;6948;51.216;6.778;2023-05-10T03:07:52;14.40;99.90
13754;DHT22;6948;51.216;6.778;2023-05-10T03:10:18;14.40;99.90
13754;DHT22;6948;51.216;6.778;2023-05-10T03:18:44;14.40;99.90
13754;DHT22;6948;51.216;6.778;2023-05-10T03:21:13;14.40;99.90
13754;DHT22;6948;51.216;6.778;2023-05-10T03:23:46;14.40;99.90
13754;DHT22;6948;51.216;6.778;2023-05-10T03:26:20;14.40;99.90
13754;DHT22;6948;51.216;6.778;2023-05-10T03:28:48;14.50;99.90
13754;DHT22;6948;51.216;6.778;2023-05-10T03:31:14;14.50;99.90
13754;DHT22;6948;51.216;6.778;2023-05-10T03:33:48;14.50;99.90
13754;DHT22;6948;51.216;6.778;2023-05-10T03:36:14;14.50;99.90
13754;DHT22;6948;51.216;6.778;2023-05-10T03:38:40;14.50;99.90
13754;DHT22;6948;51.216;6.778;2023-05-10T03:41:06;14.50;99.90
13754;DHT22;6948;51.216;6.778;2023-05-10T03:43:31;14.50;99.90
13754;DHT22;6948;51.216;6.778;2023-05-10T03:45:57;14.40;99.90
13754;DHT22;6948;51.216;6.778;2023-05-10T03:48:22;14.40;99.90
13754;DHT22;6948;51.216;6.778;2023-05-10T03:50:48;14.40;99.90
13754;DHT22;6948;51.216;6.778;2023-05-10T03:53:15;14.40;99.90
13754;DHT22;6948;51.216;6.778;2023-05-10T03:55:40;14.40;99.90
13754;DHT22;6948;51.216;6.778;2023-05-10T03:58:06;14.40;99.90
13754;DHT22;6948;51.216;6.778;2023-05-10T04:00:32;14.30;99.90
13754;DHT22;6948;51.216;6.778;2023-05-10T04:02:58;14.30;99.90
13754;DHT22;6948;51.216;6.778;2023-05-10T04:05:23;14.30;99.90
13754;DHT22;6948;51.216;6.778;2023-05-10T04:07:49;14.30;99.90
13754;DHT22;6948;51.216;6.778;2023-05-10T04:10:16;14.30;99.90
13754;DHT22;6948;51.216;6.778;2023-05-10T04:12:42;14.30;99.90
13754;DHT22;6948;51.216;6.778;2023-05-10T04:15:08;14.30;99.90
13754;DHT22;6948;51.216;6.778;2023-05-10T04:17:34;14.30;99.90
13754;DHT22;6948;51.216;6.778;2023-05-10T04:19:59;14.30;99.90
13754;DHT22;6948;51.216;6.778;2023-05-10T04:22:25;14.30;99.90
13754;DHT22;6948;51.216;6.778;2023-05-10T04:24:50;14.30;99.90
13754;DHT22;6948;51.216;6.778;2023-05-10T04:27:16;14.30;99.90
13754;DHT22;6948;51.216;6.778;2023-05-10T04:29:42;14.30;99.90
13754;DHT22;6948;51.216;6.778;2023-05-10T04:32:08;14.30;99.90
13754;DHT22;6948;51.216;6.778;2023-05-10T04:34:35;14.30;99.90
13754;DHT22;6948;51.216;6.778;2023-05-10T04:37:01;14.30;99.90
13754;DHT22;6948;51.216;6.778;2023-05-10T04:39:27;14.30;99.90
13754;DHT22;6948;51.216;6.778;2023-05-10T04:41:52;14.20;99.90
13754;DHT22;6948;51.216;6.778;2023-05-10T04:44:18;14.30;99.90
13754;DHT22;6948;51.216;6.778;2023-05-10T04:46:43;14.30;99.90
13754;DHT22;6948;51.216;6.778;2023-05-10T04:49:09;14.40;99.90
13754;DHT22;6948;51.216;6.778;2023-05-10T04:51:35;14.40;99.90
13754;DHT22;6948;51.216;6.778;2023-05-10T04:54:00;14.40;99.90
13754;DHT22;6948;51.216;6.778;2023-05-10T04:56:26;14.40;99.90
13754;DHT22;6948;51.216;6.778;2023-05-10T04:58:51;14.30;99.90
13754;DHT22;6948;51.216;6.778;2023-05-10T05:01:17;14.30;99.90
13754;DHT22;6948;51.216;6.778;2023-05-10T05:03:43;14.40;99.90
13754;DHT22;6948;51.216;6.778;2023-05-10T05:06:09;14.40;99.90
13754;DHT22;6948;51.216;6.778;2023-05-10T05:08:35;14.40;99.90
13754;DHT22;6948;51.216;6.778;2023-05-10T05:11:00;14.40;99.90
13754;DHT22;6948;51.216;6.778;2023-05-10T05:13:26;14.40;99.90
13754;DHT22;6948;51.216;6.778;2023-05-10T05:15:51;14.40;99.90
13754;DHT22;6948;51.216;6.778;2023-05-10T05:18:17;14.50;99.90
13754;DHT22;6948;51.216;6.778;2023-05-10T05:20:43;14.50;99.90
13754;DHT22;6948;51.216;6.778;2023-05-10T05:23:08;14.40;99.90
13754;DHT22;6948;51.216;6.778;2023-05-10T05:25:34;14.40;99.90
13754;DHT22;6948;51.216;6.778;2023-05-10T05:28:00;14.40;99.90
13754;DHT22;6948;51.216;6.778;2023-05-10T05:30:25;14.50;99.90
13754;DHT22;6948;51.216;6.778;2023-05-10T05:32:51;14.60;99.90
13754;DHT22;6948;51.216;6.778;2023-05-10T05:35:16;14.60;99.90
13754;DHT22;6948;51.216;6.778;2023-05-10T05:37:42;14.60;99.90
13754;DHT22;6948;51.216;6.778;2023-05-10T05:40:11;14.50;99.90
13754;DHT22;6948;51.216;6.778;2023-05-10T05:42:38;14.50;99.90
13754;DHT22;6948;51.216;6.778;2023-05-10T05:45:04;14.70;99.90
13754;DHT22;6948;51.216;6.778;2023-05-10T05:47:30;14.70;99.90
13754;DHT22;6948;51.216;6.778;2023-05-10T05:49:56;14.70;99.90
13754;DHT22;6948;51.216;6.778;2023-05-10T05:52:21;14.70;99.90
13754;DHT22;6948;51.216;6.778;2023-05-10T05:54:47;14.80;99.90
13754;DHT22;6948;51.216;6.778;2023-05-10T05:57:13;14.90;99.90
13754;DHT22;6948;51.216;6.778;2023-05-10T05:59:39;15.00;99.90
13754;DHT22;6948;51.216;6.778;2023-05-10T06:02:09;15.00;99.90
13754;DHT22;6948;51.216;6.778;2023-05-10T06:04:35;15.00;99.90
13754;DHT22;6948;51.216;6.778;2023-05-10T06:07:00;15.00;99.90
13754;DHT22;6948;51.216;6.778;2023-05-10T06:09:26;15.10;99.90
13754;DHT22;6948;51.216;6.778;2023-05-10T06:11:52;15.10;99.90
13754;DHT22;6948;51.216;6.778;2023-05-10T06:14:17;15.00;99.90
13754;DHT22;6948;51.216;6.778;2023-05-10T06:16:45;14.90;99.90
13754;DHT22;6948;51.216;6.778;2023-05-10T06:19:10;14.80;99.90
13754;DHT22;6948;51.216;6.778;2023-05-10T06:21:36;14.80;99.90
13754;DHT22;6948;51.216;6.778;2023-05-10T06:24:02;14.80;99.90
13754;DHT22;6948;51.216;6.778;2023-05-10T06:26:28;14.70;99.90
13754;DHT22;6948;51.216;6.778;2023-05-10T06:28:54;14.80;99.90
13754;DHT22;6948;51.216;6.778;2023-05-10T06:31:19;14.70;99.90
13754;DHT22;6948;51.216;6.778;2023-05-10T06:33:45;14.80;99.90
13754;DHT22;6948;51.216;6.778;2023-05-10T06:36:10;14.80;99.90
13754;DHT22;6948;51.216;6.778;2023-05-10T06:38:36;14.80;99.90
13754;DHT22;6948;51.216;6.778;2023-05-10T06:41:02;14.80;99.90
13754;DHT22;6948;51.216;6.778;2023-05-10T06:43:28;14.80;99.90
13754;DHT22;6948;51.216;6.778;2023-05-10T06:45:54;14.60;99.90
13754;DHT22;6948;51.216;6.778;2023-05-10T06:48:19;14.60;99.90
13754;DHT22;6948;51.216;6.778;2023-05-10T06:50:45;14.50;99.90
13754;DHT22;6948;51.216;6.778;2023-05-10T06:53:11;14.60;99.90
13754;DHT22;6948;51.216;6.778;2023-05-10T06:55:37;14.60;99.90
13754;DHT22;6948;51.216;6.778;2023-05-10T06:58:03;14.60;99.90
13754;DHT22;6948;51.216;6.778;2023-05-10T07:00:32;14.70;99.90
13754;DHT22;6948;51.216;6.778;2023-05-10T07:02:57;14.70;99.90
13754;DHT22;6948;51.216;6.778;2023-05-10T07:05:23;14.80;99.90
13754;DHT22;6948;51.216;6.778;2023-05-10T07:07:49;14.90;99.90
13754;DHT22;6948;51.216;6.778;2023-05-10T07:10:15;14.90;99.90
13754;DHT22;6948;51.216;6.778;2023-05-10T07:12:41;14.90;99.90
13754;DHT22;6948;51.216;6.778;2023-05-10T07:15:07;14.90;99.90
13754;DHT22;6948;51.216;6.778;2023-05-10T07:17:33;14.90;99.90
13754;DHT22;6948;51.216;6.778;2023-05-10T07:19:59;15.00;99.90
13754;DHT22;6948;51.216;6.778;2023-05-10T07:22:25;15.10;99.90
13754;DHT22;6948;51.216;6.778;2023-05-10T07:24:51;15.10;99.90
13754;DHT22;6948;51.216;6.778;2023-05-10T07:27:17;15.20;99.90
13754;DHT22;6948;51.216;6.778;2023-05-10T07:29:43;15.20;99.90
13754;DHT22;6948;51.216;6.778;2023-05-10T07:32:09;15.20;99.90
13754;DHT22;6948;51.216;6.778;2023-05-10T07:34:34;15.30;99.90
13754;DHT22;6948;51.216;6.778;2023-05-10T07:37:01;15.40;99.90
13754;DHT22;6948;51.216;6.778;2023-05-10T07:39:27;15.50;99.90
13754;DHT22;6948;51.216;6.778;2023-05-10T07:41:54;15.30;99.90
13754;DHT22;6948;51.216;6.778;2023-05-10T07:44:20;15.40;99.90
13754;DHT22;6948;51.216;6.778;2023-05-10T07:46:46;15.40;99.90
13754;DHT22;6948;51.216;6.778;2023-05-10T07:49:13;15.20;99.90
13754;DHT22;6948;51.216;6.778;2023-05-10T07:51:38;15.30;99.90
13754;DHT22;6948;51.216;6.778;2023-05-10T07:54:04;15.40;99.90
13754;DHT22;6948;51.216;6.778;2023-05-10T07:56:31;15.10;99.90
13754;DHT22;6948;51.216;6.778;2023-05-10T07:58:58;14.80;99.90
13754;DHT22;6948;51.216;6.778;2023-05-10T08:01:25;14.70;99.90
13754;DHT22;6948;51.216;6.778;2023-05-10T08:03:51;14.60;99.90
13754;DHT22;6948;51.216;6.778;2023-05-10T08:06:19;14.60;99.90
13754;DHT22;6948;51.216;6.778;2023-05-10T08:08:47;14.60;99.90
13754;DHT22;6948;51.216;6.778;2023-05-10T08:11:18;14.60;99.90
13754;DHT22;6948;51.216;6.778;2023-05-10T08:13:44;14.70;99.90
13754;DHT22;6948;51.216;6.778;2023-05-10T08:16:10;14.90;99.90
13754;DHT22;6948;51.216;6.778;2023-05-10T08:18:37;15.10;99.90
13754;DHT22;6948;51.216;6.778;2023-05-10T08:21:03;15.20;99.90
13754;DHT22;6948;51.216;6.778;2023-05-10T08:23:31;15.30;99.90
13754;DHT22;6948;51.216;6.778;2023-05-10T08:25:57;15.40;99.90
13754;DHT22;6948;51.216;6.778;2023-05-10T08:28:22;15.40;99.90
13754;DHT22;6948;51.216;6.778;2023-05-10T08:30:50;15.50;99.90
13754;DHT22;6948;51.216;6.778;2023-05-10T08:33:17;15.60;99.90
13754;DHT22;6948;51.216;6.778;2023-05-10T08:35:43;15.60;99.90
13754;DHT22;6948;51.216;6.778;2023-05-10T08:38:17;15.70;99.90
13754;DHT22;6948;51.216;6.778;2023-05-10T08:40:44;15.70;99.90
13754;DHT22;6948;51.216;6.778;2023-05-10T08:43:12;15.80;99.90
13754;DHT22;6948;51.216;6.778;2023-05-10T08:45:40;15.90;99.90
13754;DHT22;6948;51.216;6.778;2023-05-10T08:48:08;16.00;99.90
13754;DHT22;6948;51.216;6.778;2023-05-10T08:50:36;15.90;99.90
13754;DHT22;6948;51.216;6.778;2023-05-10T08:53:05;15.80;99.90
13754;DHT22;6948;51.216;6.778;2023-05-10T08:55:33;15.70;99.90
13754;DHT22;6948;51.216;6.778;2023-05-10T08:58:14;15.60;99.90
13754;DHT22;6948;51.216;6.778;2023-05-10T09:00:40;15.60;99.90
13754;DHT22;6948;51.216;6.778;2023-05-10T09:03:19;15.60;99.90
13754;DHT22;6948;51.216;6.778;2023-05-10T09:05:45;15.60;99.90
13754;DHT22;6948;51.216;6.778;2023-05-10T09:08:11;15.50;99.90
13754;DHT22;6948;51.216;6.778;2023-05-10T09:10:39;15.50;99.90
13754;DHT22;6948;51.216;6.778;2023-05-10T09:13:12;15.50;99.90
13754;DHT22;6948;51.216;6.778;2023-05-10T09:15:39;15.50;99.90
13754;DHT22;6948;51.216;6.778;2023-05-10T09:18:05;15.50;99.90
13754;DHT22;6948;51.216;6.778;2023-05-10T09:20:31;15.50;99.90
13754;DHT22;6948;51.216;6.778;2023-05-10T09:22:57;15.50;99.90
13754;DHT22;6948;51.216;6.778;2023-05-10T09:25:22;15.60;99.90
13754;DHT22;6948;51.216;6.778;2023-05-10T09:27:48;15.70;99.90
13754;DHT22;6948;51.216;6.778;2023-05-10T09:30:17;15.70;99.90
13754;DHT22;6948;51.216;6.778;2023-05-10T09:32:45;15.70;99.90
13754;DHT22;6948;51.216;6.778;2023-05-10T09:35:13;15.60;99.90
13754;DHT22;6948;51.216;6.778;2023-05-10T09:37:40;15.50;99.90
13754;DHT22;6948;51.216;6.778;2023-05-10T09:40:11;15.40;99.90
13754;DHT22;6948;51.216;6.778;2023-05-10T09:42:37;15.40;99.90
13754;DHT22;6948;51.216;6.778;2023-05-10T09:45:04;15.40;99.90
13754;DHT22;6948;51.216;6.778;2023-05-10T09:47:33;15.50;99.90
13754;DHT22;6948;51.216;6.778;2023-05-10T09:50:00;15.60;99.90
13754;DHT22;6948;51.216;6.778;2023-05-10T09:52:30;15.70;99.90
13754;DHT22;6948;51.216;6.778;2023-05-10T09:54:56;15.80;99.90
13754;DHT22;6948;51.216;6.778;2023-05-10T09:57:23;15.90;99.90
13754;DHT22;6948;51.216;6.778;2023-05-10T09:59:50;15.90;99.90
13754;DHT22;6948;51.216;6.778;2023-05-10T10:02:16;16.00;99.90
13754;DHT22;6948;51.216;6.778;2023-05-10T10:04:42;16.10;99.90
13754;DHT22;6948;51.216;6.778;2023-05-10T10:07:08;16.10;99.90
13754;DHT22;6948;51.216;6.778;2023-05-10T10:09:34;16.10;99.90
13754;DHT22;6948;51.216;6.778;2023-05-10T10:12:01;16.00;99.90
13754;DHT22;6948;51.216;6.778;2023-05-10T10:14:28;16.00;99.90
13754;DHT22;6948;51.216;6.778;2023-05-10T10:16:54;16.00;99.90
13754;DHT22;6948;51.216;6.778;2023-05-10T10:19:20;16.00;99.90
13754;DHT22;6948;51.216;6.778;2023-05-10T10:21:47;16.00;99.90
13754;DHT22;6948;51.216;6.778;2023-05-10T10:24:13;16.00;99.90
13754;DHT22;6948;51.216;6.778;2023-05-10T10:26:39;16.10;99.90
13754;DHT22;6948;51.216;6.778;2023-05-10T10:31:57;16.10;99.90
13754;DHT22;6948;51.216;6.778;2023-05-10T10:34:28;15.90;99.90
13754;DHT22;6948;51.216;6.778;2023-05-10T10:36:56;15.90;99.90
13754;DHT22;6948;51.216;6.778;2023-05-10T10:39:24;15.90;99.90
13754;DHT22;6948;51.216;6.778;2023-05-10T10:41:53;16.00;99.90
13754;DHT22;6948;51.216;6.778;2023-05-10T10:52:22;16.00;99.90
13754;DHT22;6948;51.216;6.778;2023-05-10T10:57:33;16.50;99.90
13754;DHT22;6948;51.216;6.778;2023-05-10T11:03:15;16.60;99.90
13754;DHT22;6948;51.216;6.778;2023-05-10T11:05:46;17.00;99.90
13754;DHT22;6948;51.216;6.778;2023-05-10T11:11:02;17.40;99.90
13754;DHT22;6948;51.216;6.778;2023-05-10T11:13:32;17.50;99.90
13754;DHT22;6948;51.216;6.778;2023-05-10T11:16:09;17.30;99.90
13754;DHT22;6948;51.216;6.778;2023-05-10T11:18:36;17.10;99.90
13754;DHT22;6948;51.216;6.778;2023-05-10T11:21:03;16.70;99.90
13754;DHT22;6948;51.216;6.778;2023-05-10T11:23:32;16.50;99.90
13754;DHT22;6948;51.216;6.778;2023-05-10T11:26:00;16.40;99.90
13754;DHT22;6948;51.216;6.778;2023-05-10T11:28:26;16.30;99.90
13754;DHT22;6948;51.216;6.778;2023-05-10T11:30:53;16.20;99.90
13754;DHT22;6948;51.216;6.778;2023-05-10T11:33:20;16.10;99.90
13754;DHT22;6948;51.216;6.778;2023-05-10T11:35:45;16.10;99.90
13754;DHT22;6948;51.216;6.778;2023-05-10T11:38:12;16.40;99.90
13754;DHT22;6948;51.216;6.778;2023-05-10T11:40:39;16.40;99.90
13754;DHT22;6948;51.216;6.778;2023-05-10T11:43:05;16.30;99.90
13754;DHT22;6948;51.216;6.778;2023-05-10T11:45:33;16.40;99.90
13754;DHT22;6948;51.216;6.778;2023-05-10T11:47:59;16.40;99.90
13754;DHT22;6948;51.216;6.778;2023-05-10T11:50:26;16.30;99.90
13754;DHT22;6948;51.216;6.778;2023-05-10T11:52:54;16.30;99.90
13754;DHT22;6948;51.216;6.778;2023-05-10T11:55:20;16.50;99.90
13754;DHT22;6948;51.216;6.778;2023-05-10T11:57:47;16.70;99.90
13754;DHT22;6948;51.216;6.778;2023-05-10T12:00:13;16.80;99.90
13754;DHT22;6948;51.216;6.778;2023-05-10T12:02:39;16.90;99.90
13754;DHT22;6948;51.216;6.778;2023-05-10T12:05:06;16.90;99.90
13754;DHT22;6948;51.216;6.778;2023-05-10T12:07:32;16.90;99.90
13754;DHT22;6948;51.216;6.778;2023-05-10T12:12:44;16.80;99.90
13754;DHT22;6948;51.216;6.778;2023-05-10T12:15:12;16.70;99.90
13754;DHT22;6948;51.216;6.778;2023-05-10T12:17:44;16.80;99.90
13754;DHT22;6948;51.216;6.778;2023-05-10T12:22:53;17.00;99.90
13754;DHT22;6948;51.216;6.778;2023-05-10T12:25:22;17.00;99.90
13754;DHT22;6948;51.216;6.778;2023-05-10T12:27:51;17.00;99.90
13754;DHT22;6948;51.216;6.778;2023-05-10T12:30:33;17.00;99.90
13754;DHT22;6948;51.216;6.778;2023-05-10T12:38:40;16.90;99.90
13754;DHT22;6948;51.216;6.778;2023-05-10T12:41:11;16.80;99.90
13754;DHT22;6948;51.216;6.778;2023-05-10T12:43:37;16.70;99.90
13754;DHT22;6948;51.216;6.778;2023-05-10T12:48:44;16.50;99.90
13754;DHT22;6948;51.216;6.778;2023-05-10T12:51:10;16.70;99.90
13754;DHT22;6948;51.216;6.778;2023-05-10T12:53:39;16.80;99.90
13754;DHT22;6948;51.216;6.778;2023-05-10T12:56:05;16.90;99.90
13754;DHT22;6948;51.216;6.778;2023-05-10T12:58:31;16.90;99.90
13754;DHT22;6948;51.216;6.778;2023-05-10T13:00:58;17.00;99.90
13754;DHT22;6948;51.216;6.778;2023-05-10T13:03:24;17.00;99.90
13754;DHT22;6948;51.216;6.778;2023-05-10T13:05:49;17.20;99.90
13754;DHT22;6948;51.216;6.778;2023-05-10T13:08:15;17.40;99.90
13754;DHT22;6948;51.216;6.778;2023-05-10T13:10:41;17.50;99.90
13754;DHT22;6948;51.216;6.778;2023-05-10T13:13:07;17.60;99.90
13754;DHT22;6948;51.216;6.778;2023-05-10T13:15:33;17.50;99.90
13754;DHT22;6948;51.216;6.778;2023-05-10T13:17:59;17.60;99.90
13754;DHT22;6948;51.216;6.778;2023-05-10T13:20:25;17.60;99.90
13754;DHT22;6948;51.216;6.778;2023-05-10T13:22:51;17.60;99.90
13754;DHT22;6948;51.216;6.778;2023-05-10T13:25:17;17.70;99.90
13754;DHT22;6948;51.216;6.778;2023-05-10T13:27:42;17.70;99.90
13754;DHT22;6948;51.216;6.778;2023-05-10T13:30:09;17.80;99.90
13754;DHT22;6948;51.216;6.778;2023-05-10T13:32:35;17.70;99.90
13754;DHT22;6948;51.216;6.778;2023-05-10T13:35:02;17.70;99.90
13754;DHT22;6948;51.216;6.778;2023-05-10T13:37:29;17.70;99.90
13754;DHT22;6948;51.216;6.778;2023-05-10T13:39:55;17.60;99.90
13754;DHT22;6948;51.216;6.778;2023-05-10T13:42:22;17.60;99.90
13754;DHT22;6948;51.216;6.778;2023-05-10T13:44:48;17.60;99.90
13754;DHT22;6948;51.216;6.778;2023-05-10T13:47:13;17.60;99.90
13754;DHT22;6948;51.216;6.778;2023-05-10T13:49:42;17.70;99.90
13754;DHT22;6948;51.216;6.778;2023-05-10T13:52:08;17.60;99.90
13754;DHT22;6948;51.216;6.778;2023-05-10T13:54:35;17.60;99.90
13754;DHT22;6948;51.216;6.778;2023-05-10T13:57:02;17.60;99.90
13754;DHT22;6948;51.216;6.778;2023-05-10T13:59:28;17.60;99.90
13754;DHT22;6948;51.216;6.778;2023-05-10T14:01:54;17.50;99.90
13754;DHT22;6948;51.216;6.778;2023-05-10T14:04:20;17.70;99.90
13754;DHT22;6948;51.216;6.778;2023-05-10T14:06:46;17.80;99.90
13754;DHT22;6948;51.216;6.778;2023-05-10T14:09:11;17.70;99.90
13754;DHT22;6948;51.216;6.778;2023-05-10T14:11:37;17.50;99.90
13754;DHT22;6948;51.216;6.778;2023-05-10T14:14:07;17.30;99.90
13754;DHT22;6948;51.216;6.778;2023-05-10T14:16:32;17.30;99.90
13754;DHT22;6948;51.216;6.778;2023-05-10T14:18:58;17.40;99.90
13754;DHT22;6948;51.216;6.778;2023-05-10T14:21:24;17.40;99.90
13754;DHT22;6948;51.216;6.778;2023-05-10T14:23:50;17.20;99.90
13754;DHT22;6948;51.216;6.778;2023-05-10T14:26:15;17.30;99.90
13754;DHT22;6948;51.216;6.778;2023-05-10T14:28:41;17.30;99.90
13754;DHT22;6948;51.216;6.778;2023-05-10T14:31:07;17.40;99.90
13754;DHT22;6948;51.216;6.778;2023-05-10T14:33:32;17.50;99.90
13754;DHT22;6948;51.216;6.778;2023-05-10T14:35:58;17.60;99.90
13754;DHT22;6948;51.216;6.778;2023-05-10T14:38:25;17.60;99.90
13754;DHT22;6948;51.216;6.778;2023-05-10T14:40:51;17.50;99.90
13754;DHT22;6948;51.216;6.778;2023-05-10T14:43:17;17.50;99.90
13754;DHT22;6948;51.216;6.778;2023-05-10T14:45:43;17.60;99.90
13754;DHT22;6948;51.216;6.778;2023-05-10T14:48:08;17.70;99.90
13754;DHT22;6948;51.216;6.778;2023-05-10T14:50:37;17.90;99.90
13754;DHT22;6948;51.216;6.778;2023-05-10T14:53:04;18.00;99.90
13754;DHT22;6948;51.216;6.778;2023-05-10T14:55:29;18.20;99.90
13754;DHT22;6948;51.216;6.778;2023-05-10T14:57:55;18.20;99.90
13754;DHT22;6948;51.216;6.778;2023-05-10T15:00:21;18.20;99.90
13754;DHT22;6948;51.216;6.778;2023-05-10T15:02:47;18.40;99.90
13754;DHT22;6948;51.216;6.778;2023-05-10T15:05:14;18.50;99.90
13754;DHT22;6948;51.216;6.778;2023-05-10T15:07:39;18.60;99.90
13754;DHT22;6948;51.216;6.778;2023-05-10T15:10:06;18.50;99.90
13754;DHT22;6948;51.216;6.778;2023-05-10T15:12:31;18.60;99.90
13754;DHT22;6948;51.216;6.778;2023-05-10T15:14:57;18.50;99.90
13754;DHT22;6948;51.216;6.778;2023-05-10T15:17:23;18.70;99.90
13754;DHT22;6948;51.216;6.778;2023-05-10T15:19:48;18.80;99.90
13754;DHT22;6948;51.216;6.778;2023-05-10T15:22:15;18.90;99.90
13754;DHT22;6948;51.216;6.778;2023-05-10T15:24:40;18.80;99.90
13754;DHT22;6948;51.216;6.778;2023-05-10T15:27:06;18.70;99.90
13754;DHT22;6948;51.216;6.778;2023-05-10T15:29:31;18.70;99.90
13754;DHT22;6948;51.216;6.778;2023-05-10T15:31:57;18.80;99.90
13754;DHT22;6948;51.216;6.778;2023-05-10T15:34:23;18.80;99.90
13754;DHT22;6948;51.216;6.778;2023-05-10T15:36:49;18.80;99.90
13754;DHT22;6948;51.216;6.778;2023-05-10T15:39:14;18.80;99.90
13754;DHT22;6948;51.216;6.778;2023-05-10T15:41:40;18.70;99.90
13754;DHT22;6948;51.216;6.778;2023-05-10T15:44:06;18.50;99.90
13754;DHT22;6948;51.216;6.778;2023-05-10T15:46:31;18.50;99.90
13754;DHT22;6948;51.216;6.778;2023-05-10T15:48:57;18.60;99.90
13754;DHT22;6948;51.216;6.778;2023-05-10T15:51:24;18.60;99.90
13754;DHT22;6948;51.216;6.778;2023-05-10T15:53:49;18.70;99.90
13754;DHT22;6948;51.216;6.778;2023-05-10T15:56:15;18.50;99.90
13754;DHT22;6948;51.216;6.778;2023-05-10T15:58:41;18.40;99.90
13754;DHT22;6948;51.216;6.778;2023-05-10T16:01:09;18.30;99.90
13754;DHT22;6948;51.216;6.778;2023-05-10T16:03:34;18.20;99.90
13754;DHT22;6948;51.216;6.778;2023-05-10T16:06:00;18.30;99.90
13754;DHT22;6948;51.216;6.778;2023-05-10T16:08:27;18.40;99.90
13754;DHT22;6948;51.216;6.778;2023-05-10T16:10:55;18.30;99.90
13754;DHT22;6948;51.216;6.778;2023-05-10T16:13:21;18.30;99.90
13754;DHT22;6948;51.216;6.778;2023-05-10T16:15:47;18.30;99.90
13754;DHT22;6948;51.216;6.778;2023-05-10T16:18:12;18.10;99.90
13754;DHT22;6948;51.216;6.778;2023-05-10T16:20:38;18.10;99.90
13754;DHT22;6948;51.216;6.778;2023-05-10T16:23:05;18.20;99.90
13754;DHT22;6948;51.216;6.778;2023-05-10T16:25:31;18.10;99.90
13754;DHT22;6948;51.216;6.778;2023-05-10T16:27:58;17.80;99.90
13754;DHT22;6948;51.216;6.778;2023-05-10T16:30:23;17.50;99.90
13754;DHT22;6948;51.216;6.778;2023-05-10T16:32:52;17.20;99.90
13754;DHT22;6948;51.216;6.778;2023-05-10T16:35:17;16.70;99.90
13754;DHT22;6948;51.216;6.778;2023-05-10T16:37:43;16.50;99.90
13754;DHT22;6948;51.216;6.778;2023-05-10T16:40:09;16.40;99.90